Scroll down
FLIGHT INFORMATION
American Airlines

AAL1327

At Arrival Gate

KMIA
 KJFK
DATE: 2021-05-12
GATE: F16
GATE DEPARTURE: 23:53
TAKEOFF: 00:04
DATE: 2021-05-13
GATE: T8-34
LANDING: 02:18
GATE ARRIVAL: 02:27
FLIGHT DATA
Crew: 
Speed: 
464 kts
Altitude: 
33,008 ft
Stage Length: 
948.6 nm
Block Time: 
2.5 hrs
Flight Time: 
2.2 hrs
Fuel Used: 
14,201 lb
Cleared Route: KMIA VALLY WOLFO RAMJT ETECK OZENA LANIE LURKS MILOE PANAL DIW WETRO CEBEE SWL RADDS SIE KJFK
TRACK DATA
50,000 ft 1,000 kts
AIRCRAFT INFO AND CUMULATIVE STATS
Aircraft Type: 
B738BW
Registration: 
SELCAL: 
AFJK
MSN/LN: 
31154 / 4168
Operator: 
Total Flights: 
5
Total Block Time: 
12.7 hrs
Total Flight Time: 
11.2 hrs
Total Fuel Used: 
71,207 lb
DATALINK LOG | Newest first | Current as of: 2022-09-25 17:37:14
LABEL SEQUENCE CONTENT Dn/Up
5Z321913 MAY 21 02:31:49z / FLT DECK GOOD / ACF POS GOOD / GRND SERVICES GOOD / MAINT GOOD▼ Dn
QD291702:27 7.4▼ Dn
QC200802:18▼ Dn
GA0363GATE T8-34▲ Up
GR0353KJFK 02:19 MAAS 00 YP/UM 01/00 WCHR/S/C 02/00/01 HI-VAL NO DIPL/VIP NO▼ Dn
2U3351KJFK 130051Z 36010KT 10SM FEW080 SCT110 16/M01 A3018 RMK AO2 SLP218 T01611006▲ Up
2S3323KJFK▼ Dn
QB055900:04▼ Dn
QA544923:53 21.6▼ Dn
2U4209KMIA 122253Z 17009G15KT 10SM FEW025 FEW110 BKN250 29/23 A2999 RMK AO2 SLP155 CB DSNT N AND SW T02940228 $▲ Up
2S4238KMIA▼ Dn
A33936CLEARED TO KJFK VIA VALLY2 VALLY WOLFO AR18 DIW WETRO CEBEE SWL J121 SIE CAMRN4. SQUAWK 2407.▲ Up
B33935KMIA KJFK AAL1327 N902NN ▼ Dn
A33743CLEARED TO KJFK VIA VALLY2 VALLY WOLFO AR18 DIW WETRO CEBEE SWL J121 SIE CAMRN4. SQUAWK 3653.▲ Up
Q03632[LINK ACK]▲ Up
Q03632[LINK TEST]▼ Dn


AIRCRAFT HISTORY
FLIGHT DATE FLIGHT NO. ORIGIN DESTINATION CLEARED ROUTE BLOCK TIME FLIGHT TIME FUEL USED PILOT
2022-08-06AAL808KJFK KCLT KJFK RBV COPES MXE STOEN SACRI MURPH TOOBN HAMMZ GVE LYH OZEJI RW18C1.8 hrs1.5 hrs10,757 lbpaul gugliotta
2021-05-12AAL1327KMIA KJFK KMIA VALLY WOLFO RAMJT ETECK OZENA LANIE LURKS MILOE PANAL DIW WETRO CEBEE SWL RADDS SIE KJFK2.5 hrs2.2 hrs14,201 lbJames W.
2021-02-21AAL145TJSJ KMIA TJSJ ACONY PALDE FEKKO ANTOX HAGIT FODED MADIZ FOXID FOWEE FLIPR LUVLY LECIT JODPO GRITT RW092.9 hrs2.5 hrs15,581 lbMichael Collier
2021-02-16AAL1451KMIA TJSJ KMIA SKIPS BITAC HAGIT CALTO ZIBER SAYER BEANO TJSJ2.5 hrs2.2 hrs13,644 lbMichael Collier
2021-01-28AAL348TXKF KMIA TXKF BORNN CEDRR DRREW EITEE FRSON ANTIG EMAKO TASNI GRAMN ILIDO CNNOR ZFP STAPL MILSY BOYUR HILEY KAINS CIMBA JESSS RUBOE BASHO RW26L3.1 hrs2.7 hrs17,025 lbMichael Collier